KIDA/IDA METAR and TAF weather

Enter ICAO airport designator
Station Type Date Time Source
KIDA METAR 2022/01/18 07:53 UTC NOAA

KIDA 180753Z AUTO 00000KT 9SM CLR M10/M12 A3002 RMK AO2 SLP213 T11001122


Station Type Date Time Source
KIDA Decoded METAR 2022/01/18 07:53 UTC NOAA

IDAHO FALLS REGIONAL AIRPORT, ID, United States (KIDA) 43-31N 112-04W 1453M
Jan 18, 2022 - 02:53 AM EST / 2022.01.18 0753 UTC
Wind: Calm:0
Visibility: 9 mile(s):0
Sky conditions: clear
Temperature: 14.0 F (-10.0 C)
Dew Point: 10.0 F (-12.2 C)
Relative Humidity: 83%
Pressure (altimeter): 30.02 in. Hg (1016 hPa)
ob: KIDA 180753Z AUTO 00000KT 9SM CLR M10/M12 A3002 RMK AO2 SLP213 T11001122
cycle: 8

Station Type Date Time Source
KIDA TAF 2022/01/18 06:30 UTC NOAA

TAF KIDA 180529Z 1806/1906 VRB05KT P6SM VCFG FEW004 SCT100 BKN240
FM181600 24006KT P6SM BKN100

Example: see airport list